Time;durP1;ratioP1;P1;durP2;ratioP2;P2;SDS_P1;SDS_P2;PMS_P1;PMS_P2;Temp;Humidity;BMP_temperature;BMP_pressure;BME280_temperature;BME280_humidity;BME280_pressure;Samples;Min_cycle;Max_cycle;Signal;HPM_P1;HPM_P2
2022/11/15 00:00:52;;;;;;;43.57;28.13;;;7.30;99.90;;;;;;4990602;28;20248;-78
2022/11/15 00:03:19;;;;;;;48.97;29.33;;;7.20;99.90;;;;;;4990054;28;20182;-79
2022/11/15 00:05:45;;;;;;;49.10;30.50;;;7.30;99.90;;;;;;5002959;28;20208;-78
2022/11/15 00:08:11;;;;;;;46.83;28.80;;;7.30;99.90;;;;;;4998390;28;20710;-78
2022/11/15 00:10:37;;;;;;;45.47;29.27;;;7.30;99.90;;;;;;4989572;28;20220;-79
2022/11/15 00:13:11;;;;;;;46.33;29.20;;;7.20;99.90;;;;;;4990468;28;20219;-78
2022/11/15 00:15:38;;;;;;;50.67;29.73;;;7.20;99.90;;;;;;5006834;28;20221;-78
2022/11/15 00:18:04;;;;;;;46.70;28.53;;;7.20;99.90;;;;;;4994801;28;20178;-78
2022/11/15 00:20:30;;;;;;;54.40;31.77;;;7.20;99.90;;;;;;5008935;28;20223;-77
2022/11/15 00:22:56;;;;;;;44.50;28.10;;;7.20;99.90;;;;;;4987550;28;20237;-78
2022/11/15 00:25:22;;;;;;;49.73;30.60;;;7.20;99.90;;;;;;4994271;28;20256;-79
2022/11/15 00:27:47;;;;;;;46.13;28.30;;;7.10;99.90;;;;;;4993112;28;20728;-79
2022/11/15 00:30:13;;;;;;;50.67;29.47;;;7.20;99.90;;;;;;4993951;28;20197;-77
2022/11/15 00:32:38;;;;;;;48.53;29.67;;;7.20;99.90;;;;;;4994353;28;20206;-78
2022/11/15 00:35:05;;;;;;;50.17;29.63;;;7.10;99.90;;;;;;4994015;28;20210;-78
2022/11/15 00:37:30;;;;;;;47.93;30.60;;;7.10;99.90;;;;;;4994214;28;20217;-79
2022/11/15 00:39:56;;;;;;;43.83;29.40;;;7.10;99.90;;;;;;4993697;28;20224;-78
2022/11/15 00:42:21;;;;;;;50.43;29.97;;;7.10;99.90;;;;;;4993755;28;20220;-78
2022/11/15 00:44:47;;;;;;;51.87;31.03;;;7.10;99.90;;;;;;4994521;28;20309;-78
2022/11/15 00:47:13;;;;;;;48.63;29.30;;;7.10;99.90;;;;;;4993600;28;20209;-78
2022/11/15 00:49:38;;;;;;;49.67;29.90;;;7.10;99.90;;;;;;4993552;28;20308;-78
2022/11/15 00:52:04;;;;;;;48.37;30.73;;;7.10;99.90;;;;;;4993312;28;20314;-77
2022/11/15 00:54:29;;;;;;;50.87;31.10;;;7.10;99.90;;;;;;4993819;28;20263;-78
2022/11/15 00:56:55;;;;;;;49.17;28.70;;;7.00;99.90;;;;;;4990387;28;20182;-77
2022/11/15 00:59:20;;;;;;;47.73;29.67;;;7.10;99.90;;;;;;4992092;28;20206;-78
2022/11/15 01:01:46;;;;;;;48.57;29.17;;;7.10;99.90;;;;;;4993280;28;20297;-78
2022/11/15 01:04:11;;;;;;;50.63;30.87;;;7.10;99.90;;;;;;5000418;28;20220;-78
2022/11/15 01:06:37;;;;;;;51.73;30.20;;;7.00;99.90;;;;;;4993563;28;20212;-78
2022/11/15 01:09:03;;;;;;;52.07;29.87;;;7.00;99.90;;;;;;4993400;28;20185;-78
2022/11/15 01:11:28;;;;;;;45.13;28.33;;;7.00;99.90;;;;;;4990280;28;20240;-78
2022/11/15 01:13:55;;;;;;;50.73;30.93;;;7.00;99.90;;;;;;4993214;28;20595;-77
2022/11/15 01:16:20;;;;;;;48.13;30.17;;;7.00;99.90;;;;;;5008153;28;20225;-78
2022/11/15 01:18:46;;;;;;;51.97;30.47;;;7.00;99.90;;;;;;4993331;28;20217;-77
2022/11/15 01:21:17;;;;;;;48.43;29.87;;;7.00;99.90;;;;;;4992583;28;20209;-78
2022/11/15 01:23:43;;;;;;;48.63;30.30;;;7.00;99.90;;;;;;4993439;28;20691;-78
2022/11/15 01:26:12;;;;;;;50.23;31.47;;;7.00;99.90;;;;;;4996930;28;20322;-77
2022/11/15 01:28:39;;;;;;;52.33;30.37;;;7.00;99.90;;;;;;4989669;28;20206;-78
2022/11/15 01:31:10;;;;;;;50.70;31.17;;;7.00;99.90;;;;;;4992484;28;20213;-78
2022/11/15 01:33:38;;;;;;;47.13;30.80;;;7.00;99.90;;;;;;4992818;28;20218;-77
2022/11/15 01:36:12;;;;;;;49.73;30.27;;;7.00;99.90;;;;;;4988705;28;20186;-78
2022/11/15 01:38:37;;;;;;;49.33;29.83;;;7.00;99.90;;;;;;4993160;28;20701;-78
2022/11/15 01:41:04;;;;;;;54.20;31.53;;;7.00;99.90;;;;;;4992290;28;20241;-78
2022/11/15 01:43:35;;;;;;;51.17;31.03;;;6.90;99.90;;;;;;4993023;28;20217;-78
2022/11/15 01:46:06;;;;;;;58.33;32.87;;;6.90;99.90;;;;;;5000289;28;20233;-77
2022/11/15 01:48:33;;;;;;;49.60;30.77;;;6.80;99.90;;;;;;4992704;28;20214;-77
2022/11/15 01:51:08;;;;;;;52.27;30.90;;;6.90;99.90;;;;;;4992592;28;20174;-78
2022/11/15 01:53:35;;;;;;;48.77;30.83;;;6.90;99.90;;;;;;4995225;28;20624;-80
2022/11/15 01:56:04;;;;;;;47.10;30.50;;;6.90;99.90;;;;;;4994559;28;20229;-79
2022/11/15 01:58:29;;;;;;;48.33;29.13;;;6.90;99.90;;;;;;4994135;28;20268;-79
2022/11/15 02:00:55;;;;;;;46.17;30.20;;;6.90;99.90;;;;;;4994056;28;20650;-77
2022/11/15 02:03:25;;;;;;;49.10;29.83;;;6.80;99.90;;;;;;4994101;28;20188;-79
2022/11/15 02:05:51;;;;;;;46.33;30.57;;;6.90;99.90;;;;;;5025525;23;20220;-78
2022/11/15 02:08:19;;;;;;;52.97;32.30;;;6.90;99.90;;;;;;5035081;28;20209;-78
2022/11/15 02:10:46;;;;;;;50.13;30.23;;;6.90;99.90;;;;;;5035494;28;20208;-77
2022/11/15 02:13:17;;;;;;;50.80;31.10;;;6.90;99.90;;;;;;5032946;28;20223;-78
2022/11/15 02:15:59;;;;;;;49.67;30.00;;;6.90;99.90;;;;;;5038060;28;20300;-79
2022/11/15 02:18:32;;;;;;;53.10;32.03;;;6.90;99.90;;;;;;5041273;28;20210;-78
2022/11/15 02:21:22;;;;;;;49.37;30.57;;;6.90;99.90;;;;;;5036478;28;20197;-77
2022/11/15 02:23:50;;;;;;;52.17;30.20;;;6.90;99.90;;;;;;5057594;28;20681;-77
2022/11/15 02:26:25;;;;;;;53.63;30.90;;;6.90;99.90;;;;;;5038343;28;20222;-76
2022/11/15 02:29:16;;;;;;;51.77;31.67;;;6.90;99.90;;;;;;5036098;28;20210;-77
2022/11/15 02:31:50;;;;;;;52.47;30.63;;;6.80;99.90;;;;;;5036395;28;20289;-78
2022/11/15 02:34:47;;;;;;;54.40;31.80;;;6.90;99.90;;;;;;5039531;28;20208;-77
2022/11/15 02:37:18;;;;;;;49.83;30.50;;;6.90;99.90;;;;;;5034449;28;20246;-77
2022/11/15 02:40:09;;;;;;;53.77;31.80;;;6.90;99.90;;;;;;5037400;28;20295;-78
2022/11/15 02:45:33;;;;;;;52.43;31.37;;;6.80;99.90;;;;;;5024108;28;20610;-78
2022/11/15 02:48:00;;;;;;;46.57;28.97;;;6.80;99.90;;;;;;5033016;28;20181;-77
2022/11/15 02:50:31;;;;;;;51.93;32.00;;;6.80;99.90;;;;;;5029264;28;20231;-77
2022/11/15 02:52:57;;;;;;;51.70;30.33;;;6.80;99.90;;;;;;5024467;28;20205;-79
2022/11/15 02:55:31;;;;;;;46.90;29.57;;;6.80;99.90;;;;;;5037796;28;20212;-77
2022/11/15 02:58:26;;;;;;;51.73;30.63;;;6.80;99.90;;;;;;5031828;28;20209;-78
2022/11/15 03:01:10;;;;;;;51.00;30.87;;;6.80;99.90;;;;;;5018666;28;20216;-79
2022/11/15 03:04:09;;;;;;;48.80;28.93;;;6.80;99.90;;;;;;5027078;28;20249;-78
2022/11/15 03:06:49;;;;;;;46.57;29.53;;;6.80;99.90;;;;;;5020685;28;20230;-78
2022/11/15 03:09:30;;;;;;;48.37;28.87;;;6.80;99.90;;;;;;5022710;28;20196;-77
2022/11/15 03:12:03;;;;;;;51.10;29.40;;;6.80;99.90;;;;;;5024427;28;20173;-78
2022/11/15 03:14:32;;;;;;;49.30;29.90;;;6.80;99.90;;;;;;5027064;28;20231;-80
2022/11/15 03:17:30;;;;;;;47.43;28.07;;;6.70;99.90;;;;;;5028220;28;20220;-78
2022/11/15 03:20:03;;;;;;;52.80;31.03;;;6.70;99.90;;;;;;5021418;28;20204;-78
2022/11/15 03:22:33;;;;;;;50.20;30.23;;;6.70;99.90;;;;;;5028118;28;20266;-78
2022/11/15 03:25:05;;;;;;;47.77;28.93;;;6.80;99.90;;;;;;5021157;28;20204;-77
2022/11/15 03:27:36;;;;;;;48.10;30.73;;;6.70;99.90;;;;;;5027507;28;20703;-78
2022/11/15 03:30:06;;;;;;;49.10;30.33;;;6.80;99.90;;;;;;5020346;28;20204;-79
2022/11/15 03:32:40;;;;;;;49.20;28.60;;;6.70;99.90;;;;;;5021265;28;20215;-77
2022/11/15 03:35:10;;;;;;;52.27;30.43;;;6.70;99.90;;;;;;5020893;28;20247;-77
2022/11/15 03:37:49;;;;;;;49.10;28.57;;;6.80;99.90;;;;;;5020012;28;20204;-78
2022/11/15 03:40:17;;;;;;;49.40;29.00;;;6.70;99.90;;;;;;5025675;28;20208;-77
2022/11/15 03:42:57;;;;;;;48.70;29.87;;;6.70;99.90;;;;;;5023527;28;20231;-77
2022/11/15 03:45:29;;;;;;;47.53;29.07;;;6.70;99.90;;;;;;5030760;28;20232;-78
2022/11/15 03:48:02;;;;;;;44.63;28.43;;;6.70;99.90;;;;;;5025001;28;20176;-77
2022/11/15 03:50:29;;;;;;;48.17;29.53;;;6.70;99.90;;;;;;5026418;28;20208;-77
2022/11/15 03:52:55;;;;;;;48.70;29.07;;;6.70;99.90;;;;;;5024136;28;20227;-77
2022/11/15 03:55:22;;;;;;;47.03;29.37;;;6.70;99.90;;;;;;5030431;28;20216;-78
2022/11/15 03:57:51;;;;;;;52.60;31.00;;;6.60;99.90;;;;;;5026309;28;20610;-79
2022/11/15 04:00:16;;;;;;;51.93;29.77;;;6.70;99.90;;;;;;5025207;28;20234;-76
2022/11/15 04:02:42;;;;;;;47.27;30.33;;;6.70;99.90;;;;;;5028039;28;20683;-78
2022/11/15 04:05:08;;;;;;;46.60;28.53;;;6.70;99.90;;;;;;5025820;28;20220;-78
2022/11/15 04:07:33;;;;;;;49.47;28.77;;;6.70;99.90;;;;;;5023217;28;20250;-78
2022/11/15 04:10:02;;;;;;;49.80;28.70;;;6.70;99.90;;;;;;5029623;28;20215;-78
2022/11/15 04:12:39;;;;;;;50.77;30.97;;;6.70;99.90;;;;;;5032896;28;20187;-77
2022/11/15 04:15:10;;;;;;;51.30;30.67;;;6.70;99.90;;;;;;5021228;28;20578;-77
2022/11/15 04:17:54;;;;;;;47.50;28.70;;;6.70;99.90;;;;;;5029452;28;20244;-78
2022/11/15 04:26:06;;;;;;;47.03;28.77;;;6.60;99.90;;;;;;5021633;28;20215;-78
2022/11/15 04:28:33;;;;;;;47.03;28.37;;;6.60;99.90;;;;;;5027525;28;20209;-78
2022/11/15 04:30:58;;;;;;;51.70;29.00;;;6.60;99.90;;;;;;5022942;28;20694;-78
2022/11/15 04:33:24;;;;;;;48.00;28.37;;;6.60;99.90;;;;;;5024795;28;20208;-79
2022/11/15 04:38:35;;;;;;;52.10;29.07;;;6.60;99.90;;;;;;5027875;28;20250;-79
2022/11/15 04:41:01;;;;;;;49.83;28.70;;;6.60;99.90;;;;;;5018216;28;20292;-78
2022/11/15 04:43:27;;;;;;;46.13;28.23;;;6.60;99.90;;;;;;5028179;28;20241;-77
2022/11/15 04:45:52;;;;;;;46.43;28.97;;;6.60;99.90;;;;;;5022114;28;20216;-75
2022/11/15 04:48:18;;;;;;;49.63;29.70;;;6.60;99.90;;;;;;5025062;28;20697;-77
2022/11/15 04:50:44;;;;;;;43.33;26.50;;;6.70;99.90;;;;;;5026707;28;20267;-77
2022/11/15 04:53:09;;;;;;;48.10;28.97;;;6.70;99.90;;;;;;5029772;28;20211;-80
2022/11/15 04:55:35;;;;;;;46.17;28.20;;;6.60;99.90;;;;;;5029071;28;20215;-77
2022/11/15 04:58:01;;;;;;;49.50;28.13;;;6.70;99.90;;;;;;5027261;28;20217;-78
2022/11/15 05:00:28;;;;;;;42.83;27.60;;;6.70;99.90;;;;;;5021367;28;20184;-77
2022/11/15 05:05:39;;;;;;;46.27;27.37;;;6.70;99.90;;;;;;5023338;28;20231;-78
2022/11/15 05:08:05;;;;;;;45.50;27.00;;;6.70;99.90;;;;;;5025093;28;20217;-78
2022/11/15 05:10:31;;;;;;;49.13;27.47;;;6.70;99.90;;;;;;5019994;28;20208;-77
2022/11/15 05:12:56;;;;;;;44.37;27.60;;;6.80;99.90;;;;;;5020376;28;20291;-78
2022/11/15 05:15:22;;;;;;;46.53;28.57;;;6.80;99.90;;;;;;5023774;28;20197;-77
2022/11/15 05:17:47;;;;;;;46.73;27.17;;;6.80;99.90;;;;;;5025520;28;20208;-78
2022/11/15 05:20:13;;;;;;;43.83;25.93;;;6.70;99.90;;;;;;5022352;28;20259;-77
2022/11/15 05:22:39;;;;;;;41.13;26.37;;;6.80;99.90;;;;;;5026578;28;20562;-77
2022/11/15 05:25:06;;;;;;;44.73;26.73;;;6.70;99.90;;;;;;5022882;28;20217;-77
2022/11/15 05:27:32;;;;;;;42.97;25.70;;;6.70;99.90;;;;;;5021329;28;20592;-77
2022/11/15 05:29:57;;;;;;;39.47;26.50;;;6.70;99.90;;;;;;5021881;28;20185;-79
2022/11/15 05:32:24;;;;;;;43.97;27.07;;;6.70;99.90;;;;;;5025347;28;20295;-78
2022/11/15 05:34:49;;;;;;;42.50;26.77;;;6.80;99.90;;;;;;5024266;28;20589;-78
2022/11/15 05:37:16;;;;;;;45.43;27.13;;;6.70;99.90;;;;;;5019080;28;20212;-76
2022/11/15 05:39:42;;;;;;;41.77;24.97;;;6.70;99.90;;;;;;5019771;28;20201;-77
2022/11/15 05:42:13;;;;;;;45.27;27.93;;;6.70;99.90;;;;;;5020218;28;20216;-77
2022/11/15 05:44:44;;;;;;;43.93;25.83;;;6.70;99.90;;;;;;5022396;28;20220;-77
2022/11/15 05:47:13;;;;;;;42.87;25.93;;;6.70;99.90;;;;;;5023061;28;20595;-77
2022/11/15 05:49:42;;;;;;;41.17;26.00;;;6.70;99.90;;;;;;5028994;28;20239;-77
2022/11/15 05:52:11;;;;;;;44.10;27.50;;;6.70;99.90;;;;;;5028129;28;20761;-78
2022/11/15 05:54:37;;;;;;;42.97;25.77;;;6.70;99.90;;;;;;5021301;28;20216;-77
2022/11/15 05:57:04;;;;;;;41.90;26.33;;;6.70;99.90;;;;;;5022173;28;20319;-77
2022/11/15 05:59:31;;;;;;;46.43;27.80;;;6.60;99.90;;;;;;5028296;28;20211;-78
2022/11/15 06:01:57;;;;;;;41.67;26.27;;;6.60;99.90;;;;;;5023231;28;20274;-78
2022/11/15 06:04:23;;;;;;;42.70;26.70;;;6.70;99.90;;;;;;5027832;28;20249;-78
2022/11/15 06:06:48;;;;;;;46.07;26.33;;;6.70;99.90;;;;;;5022119;28;20423;-77
2022/11/15 06:09:14;;;;;;;50.00;26.93;;;6.70;99.90;;;;;;5022336;28;20321;-77
2022/11/15 06:11:39;;;;;;;44.97;26.87;;;6.70;99.90;;;;;;5026160;28;20177;-77
2022/11/15 06:14:05;;;;;;;45.13;26.63;;;6.70;99.90;;;;;;5025931;28;20589;-77
2022/11/15 06:16:31;;;;;;;41.30;25.17;;;6.70;99.90;;;;;;5029479;28;20255;-77
2022/11/15 06:18:56;;;;;;;46.27;27.07;;;6.70;99.90;;;;;;5027223;28;20316;-77
2022/11/15 06:21:22;;;;;;;47.20;26.40;;;6.80;99.90;;;;;;5025680;28;20724;-77
2022/11/15 06:23:48;;;;;;;45.53;26.00;;;6.80;99.90;;;;;;5026934;28;20187;-77
2022/11/15 06:26:13;;;;;;;42.90;26.83;;;6.80;99.90;;;;;;5024969;28;20212;-76
2022/11/15 06:28:39;;;;;;;53.03;28.37;;;6.80;99.90;;;;;;5027095;28;20242;-77
2022/11/15 06:31:06;;;;;;;46.83;27.30;;;6.80;99.90;;;;;;5024294;28;20216;-78
2022/11/15 06:33:32;;;;;;;43.90;27.53;;;6.80;99.90;;;;;;5022989;28;20220;-77
2022/11/15 06:36:03;;;;;;;46.93;27.70;;;6.80;99.90;;;;;;5022120;28;20752;-76
2022/11/15 06:38:29;;;;;;;47.10;27.27;;;6.80;99.90;;;;;;5029954;28;20715;-78
2022/11/15 06:41:08;;;;;;;46.03;25.40;;;6.80;99.90;;;;;;5018970;28;20252;-77
2022/11/15 06:43:35;;;;;;;49.03;26.33;;;6.90;99.90;;;;;;5029657;28;20216;-77
2022/11/15 06:46:01;;;;;;;43.60;25.40;;;6.80;99.90;;;;;;5024648;28;20401;-77
2022/11/15 06:48:28;;;;;;;43.83;26.33;;;6.80;99.90;;;;;;5022111;28;20643;-77
2022/11/15 06:50:56;;;;;;;45.60;28.50;;;6.90;99.90;;;;;;5024826;28;20189;-77
2022/11/15 06:53:23;;;;;;;44.97;27.73;;;6.90;99.90;;;;;;5026736;28;20216;-77
2022/11/15 06:55:48;;;;;;;58.03;27.70;;;6.90;99.90;;;;;;5022545;28;20219;-77
2022/11/15 06:58:14;;;;;;;44.40;25.63;;;6.90;99.90;;;;;;5019816;28;20204;-79
2022/11/15 07:00:40;;;;;;;49.83;27.80;;;7.00;99.90;;;;;;5026989;28;20212;-78
2022/11/15 07:03:06;;;;;;;45.83;27.40;;;6.90;99.90;;;;;;5027176;28;20719;-78
2022/11/15 07:05:32;;;;;;;43.03;26.07;;;7.00;99.90;;;;;;5024541;28;20315;-77
2022/11/15 07:07:58;;;;;;;45.80;26.03;;;7.00;99.90;;;;;;5022481;28;20237;-78
2022/11/15 07:10:25;;;;;;;40.43;26.07;;;7.10;99.90;;;;;;5026698;28;20258;-77
2022/11/15 07:12:52;;;;;;;48.63;26.73;;;7.10;99.90;;;;;;5021868;28;20251;-78
2022/11/15 07:15:20;;;;;;;42.57;25.53;;;7.20;99.90;;;;;;5021658;28;20199;-78
2022/11/15 07:17:46;;;;;;;45.97;26.93;;;7.30;99.90;;;;;;5025311;28;20180;-77
2022/11/15 07:20:13;;;;;;;40.30;25.13;;;7.30;99.90;;;;;;5023832;28;20310;-78
2022/11/15 07:22:40;;;;;;;38.50;25.20;;;7.40;99.90;;;;;;5028770;28;20645;-77
2022/11/15 07:25:05;;;;;;;41.80;25.60;;;7.50;99.90;;;;;;5024099;28;20220;-78
2022/11/15 07:27:31;;;;;;;41.67;25.10;;;8.40;99.90;;;;;;5017919;28;20224;-78
2022/11/15 07:29:57;;;;;;;37.93;24.77;;;9.50;99.90;;;;;;5024866;28;20188;-79
2022/11/15 07:32:22;;;;;;;33.67;21.73;;;10.10;99.90;;;;;;5024802;28;20239;-79
2022/11/15 07:34:48;;;;;;;33.53;20.87;;;10.80;99.90;;;;;;5018855;28;20219;-78
2022/11/15 07:37:13;;;;;;;31.67;20.73;;;11.00;99.90;;;;;;5027904;28;20204;-78
2022/11/15 07:39:39;;;;;;;31.63;20.37;;;11.50;99.90;;;;;;5028629;28;20208;-78
2022/11/15 07:44:49;;;;;;;32.93;19.93;;;11.40;99.90;;;;;;5024895;28;20258;-79
2022/11/15 07:47:15;;;;;;;33.73;20.47;;;11.20;99.90;;;;;;5028170;28;20652;-78
2022/11/15 07:49:40;;;;;;;33.97;21.07;;;11.30;99.90;;;;;;5023928;28;20223;-78
2022/11/15 07:52:06;;;;;;;30.53;20.20;;;11.30;99.90;;;;;;5024893;28;20224;-78
2022/11/15 07:54:32;;;;;;;30.63;20.87;;;11.50;99.90;;;;;;5020827;28;20611;-78
2022/11/15 07:56:57;;;;;;;32.50;21.67;;;11.60;99.90;;;;;;5026703;28;20594;-77
2022/11/15 07:59:23;;;;;;;34.70;22.10;;;11.00;99.90;;;;;;5026014;28;20248;-78
2022/11/15 08:01:48;;;;;;;32.17;20.13;;;10.50;99.90;;;;;;5023330;28;20212;-78
2022/11/15 08:04:14;;;;;;;35.93;21.77;;;10.30;99.90;;;;;;5025470;28;20242;-77
2022/11/15 08:09:08;;;;;;;35.57;21.73;;;10.40;99.90;;;;;;5029764;28;20224;-78
2022/11/15 08:11:34;;;;;;;33.20;22.63;;;10.50;99.90;;;;;;5025180;28;20192;-75
2022/11/15 08:14:00;;;;;;;34.23;21.03;;;10.40;99.90;;;;;;5022482;28;20351;-76
2022/11/15 08:16:25;;;;;;;33.30;21.97;;;10.60;99.90;;;;;;5026880;28;20647;-76
2022/11/15 08:18:51;;;;;;;32.47;20.80;;;10.50;99.90;;;;;;5025219;28;20239;-75
2022/11/15 08:21:19;;;;;;;34.53;20.00;;;10.60;99.90;;;;;;5028759;28;20234;-76
2022/11/15 08:23:45;;;;;;;32.90;21.60;;;10.90;99.90;;;;;;5024417;28;20688;-76
2022/11/15 08:26:11;;;;;;;31.80;21.07;;;10.80;99.90;;;;;;5024199;28;20231;-76
2022/11/15 08:28:37;;;;;;;30.70;20.97;;;10.90;99.90;;;;;;5020130;28;20212;-76
2022/11/15 08:31:04;;;;;;;33.40;21.37;;;11.10;99.90;;;;;;5024641;28;20213;-76
2022/11/15 08:33:30;;;;;;;29.93;20.37;;;10.80;99.90;;;;;;5025973;28;20718;-76
2022/11/15 08:35:57;;;;;;;31.70;19.70;;;10.80;99.90;;;;;;5021482;28;20173;-76
2022/11/15 08:38:23;;;;;;;34.70;21.33;;;10.80;99.90;;;;;;5031249;28;20216;-76
2022/11/15 08:40:52;;;;;;;32.33;19.97;;;11.00;99.90;;;;;;5035855;28;20240;-76
2022/11/15 08:43:17;;;;;;;32.77;20.70;;;10.80;99.90;;;;;;5029303;28;20254;-76
2022/11/15 08:45:43;;;;;;;33.90;19.70;;;10.90;99.90;;;;;;5031788;28;20299;-76
2022/11/15 08:48:09;;;;;;;33.13;20.87;;;11.30;99.90;;;;;;5024424;28;20197;-77
2022/11/15 08:50:34;;;;;;;30.50;20.83;;;11.50;99.90;;;;;;5030235;28;20676;-76
2022/11/15 08:53:08;;;;;;;33.20;21.70;;;11.50;99.90;;;;;;5027509;28;20327;-76
2022/11/15 08:55:37;;;;;;;29.07;20.60;;;11.40;99.90;;;;;;5025054;28;20821;-76
2022/11/15 08:58:03;;;;;;;27.77;18.20;;;11.30;99.90;;;;;;5027528;28;20236;-76
2022/11/15 09:00:29;;;;;;;27.00;19.13;;;11.70;99.90;;;;;;5031382;28;20370;-76
2022/11/15 09:02:54;;;;;;;29.87;20.20;;;11.80;99.90;;;;;;5022422;28;20300;-76
2022/11/15 09:05:20;;;;;;;28.53;18.33;;;11.70;99.90;;;;;;5030874;28;20297;-77
2022/11/15 09:07:45;;;;;;;26.77;18.87;;;11.70;99.90;;;;;;5025618;28;20212;-76
2022/11/15 09:10:11;;;;;;;30.63;20.40;;;11.50;99.90;;;;;;5023800;28;20201;-76
2022/11/15 09:12:37;;;;;;;30.63;19.90;;;11.40;99.90;;;;;;5029914;28;20208;-76
2022/11/15 09:15:03;;;;;;;30.63;20.00;;;11.60;99.90;;;;;;5025084;28;20567;-76
2022/11/15 09:17:29;;;;;;;25.77;18.10;;;11.50;99.90;;;;;;5026531;28;20722;-76
2022/11/15 09:19:55;;;;;;;30.77;20.10;;;11.50;99.90;;;;;;5032191;28;20261;-76
2022/11/15 09:22:20;;;;;;;32.50;20.63;;;11.80;99.90;;;;;;5025238;28;20212;-77
2022/11/15 09:24:46;;;;;;;29.53;18.93;;;11.90;99.90;;;;;;5029106;28;20208;-76
2022/11/15 09:27:13;;;;;;;27.87;17.67;;;11.80;99.90;;;;;;5026901;28;20230;-76
2022/11/15 09:29:38;;;;;;;29.17;19.00;;;11.80;99.90;;;;;;5028826;28;20188;-76
2022/11/15 09:32:04;;;;;;;26.20;17.70;;;11.80;99.90;;;;;;5028688;28;20205;-76
2022/11/15 09:34:30;;;;;;;31.03;17.63;;;11.90;99.90;;;;;;5021342;28;20210;-77
2022/11/15 09:36:56;;;;;;;29.87;18.67;;;12.10;99.90;;;;;;5015066;28;20216;-75
2022/11/15 09:39:21;;;;;;;30.57;19.40;;;12.50;99.90;;;;;;5026032;28;20217;-77
2022/11/15 09:41:53;;;;;;;25.90;16.23;;;12.50;99.90;;;;;;5025713;28;20210;-78
2022/11/15 09:44:40;;;;;;;25.43;17.40;;;12.20;99.90;;;;;;5027442;28;20770;-76
2022/11/15 09:47:30;;;;;;;25.57;17.47;;;12.10;99.90;;;;;;5026442;28;20586;-75
2022/11/15 09:49:59;;;;;;;29.27;18.40;;;12.10;99.90;;;;;;5026550;28;20219;-76
2022/11/15 09:52:25;;;;;;;25.43;16.30;;;12.40;99.90;;;;;;5029843;28;20237;-76
2022/11/15 09:54:52;;;;;;;27.47;17.57;;;12.30;99.90;;;;;;5024799;28;20664;-76
2022/11/15 09:57:50;;;;;;;23.70;15.87;;;12.40;99.90;;;;;;5023586;28;20215;-75
2022/11/15 10:00:24;;;;;;;26.67;16.93;;;12.20;99.90;;;;;;5026968;28;20193;-74
2022/11/15 10:03:01;;;;;;;24.97;15.67;;;12.20;99.90;;;;;;5022920;28;20224;-76
2022/11/15 10:05:29;;;;;;;25.77;15.97;;;12.20;99.90;;;;;;5027549;28;20738;-75
2022/11/15 10:08:10;;;;;;;24.47;14.67;;;12.50;99.90;;;;;;5024828;28;20217;-76
2022/11/15 10:10:42;;;;;;;23.87;14.33;;;12.60;99.90;;;;;;5025159;28;20207;-76
2022/11/15 10:13:16;;;;;;;27.20;15.33;;;12.80;99.90;;;;;;5027427;28;20267;-76
2022/11/15 10:15:45;;;;;;;26.30;16.83;;;12.80;99.90;;;;;;5024839;28;20211;-76
2022/11/15 10:18:16;;;;;;;21.90;15.13;;;12.60;99.90;;;;;;5025474;28;20197;-76
2022/11/15 10:20:50;;;;;;;24.67;16.23;;;12.70;99.90;;;;;;5026842;28;20662;-76
2022/11/15 10:23:20;;;;;;;19.97;13.73;;;12.90;99.90;;;;;;5024254;28;20200;-74
2022/11/15 10:25:46;;;;;;;21.67;13.90;;;12.70;99.90;;;;;;5029619;28;20204;-76
2022/11/15 10:28:17;;;;;;;25.67;14.90;;;12.50;99.90;;;;;;5025438;28;20208;-76
2022/11/15 10:30:45;;;;;;;21.43;14.03;;;12.50;99.90;;;;;;5027014;28;20212;-76
2022/11/15 10:33:20;;;;;;;23.97;14.57;;;12.70;99.90;;;;;;5026797;28;20311;-76
2022/11/15 10:35:45;;;;;;;26.70;14.63;;;12.80;99.90;;;;;;5024003;28;20230;-76
2022/11/15 10:38:12;;;;;;;26.57;17.77;;;12.80;99.90;;;;;;5024194;28;20719;-76
2022/11/15 10:40:39;;;;;;;22.43;14.67;;;12.90;99.90;;;;;;5027266;28;20208;-76
2022/11/15 10:43:14;;;;;;;27.10;15.40;;;13.00;99.90;;;;;;5022584;28;20216;-76
2022/11/15 10:45:41;;;;;;;24.60;16.13;;;13.00;99.90;;;;;;5026507;28;20224;-77
2022/11/15 10:48:13;;;;;;;23.77;15.13;;;13.10;99.90;;;;;;5027284;28;20205;-76
2022/11/15 10:50:44;;;;;;;24.90;14.93;;;13.30;99.90;;;;;;5026187;28;20220;-76
2022/11/15 10:53:28;;;;;;;19.43;13.87;;;13.60;99.90;;;;;;5026744;28;20216;-76
2022/11/15 10:55:57;;;;;;;18.97;13.90;;;13.60;99.90;;;;;;5021405;28;20232;-76
2022/11/15 10:58:41;;;;;;;24.90;15.00;;;13.60;99.90;;;;;;5025196;28;20211;-76
2022/11/15 11:01:18;;;;;;;21.70;15.23;;;13.50;99.90;;;;;;5025150;28;20228;-76
2022/11/15 11:03:57;;;;;;;21.30;14.33;;;13.20;99.90;;;;;;5021908;28;21006;-77
2022/11/15 11:06:23;;;;;;;21.63;14.43;;;13.20;99.90;;;;;;5031483;28;20194;-77
2022/11/15 11:08:58;;;;;;;23.97;14.87;;;13.20;99.90;;;;;;5024691;28;20212;-76
2022/11/15 11:11:24;;;;;;;22.53;15.50;;;13.20;99.90;;;;;;5028956;28;20215;-76
2022/11/15 11:13:50;;;;;;;19.77;15.43;;;13.10;99.90;;;;;;5027507;28;20311;-76
2022/11/15 11:16:41;;;;;;;26.20;15.40;;;13.10;99.90;;;;;;5024339;28;20754;-75
2022/11/15 11:19:32;;;;;;;24.20;16.43;;;13.20;99.90;;;;;;5024183;28;20213;-76
2022/11/15 11:22:23;;;;;;;23.70;15.53;;;13.40;99.90;;;;;;5025185;28;20228;-76
2022/11/15 11:25:30;;;;;;;22.20;15.27;;;13.50;99.90;;;;;;5022162;28;20217;-76
2022/11/15 11:28:10;;;;;;;23.13;15.50;;;13.60;99.90;;;;;;4968981;28;20655;-75
2022/11/15 11:30:41;;;;;;;23.30;15.95;;;13.80;99.90;;;;;;4968846;28;20221;-76
2022/11/15 11:33:19;;;;;;;23.13;14.82;;;13.90;99.90;;;;;;5003064;28;20212;-76
2022/11/15 11:36:09;;;;;;;21.95;13.77;;;13.80;99.90;;;;;;5024003;28;20212;-76
2022/11/15 11:38:42;;;;;;;22.33;14.90;;;13.60;99.90;;;;;;5023948;28;20228;-76
2022/11/15 11:41:40;;;;;;;23.33;15.23;;;13.70;99.90;;;;;;5025372;28;20220;-76
2022/11/15 11:44:27;;;;;;;21.73;14.88;;;13.80;99.90;;;;;;5008815;28;20213;-76
2022/11/15 11:47:07;;;;;;;20.00;13.93;;;13.60;99.90;;;;;;5024426;28;20285;-76
2022/11/15 11:49:49;;;;;;;20.17;14.95;;;13.70;99.90;;;;;;5027326;28;20211;-76
2022/11/15 11:52:27;;;;;;;24.88;15.02;;;13.70;99.90;;;;;;5021223;28;20579;-76
2022/11/15 11:55:21;;;;;;;22.25;16.38;;;13.70;99.90;;;;;;5023969;28;20212;-75
2022/11/15 11:58:21;;;;;;;21.50;15.02;;;13.70;99.90;;;;;;5022103;28;20236;-77
2022/11/15 12:00:52;;;;;;;25.55;17.08;;;13.60;99.90;;;;;;5023778;28;20236;-76
2022/11/15 12:03:41;;;;;;;22.45;14.30;;;13.60;99.90;;;;;;5023069;28;20177;-76
2022/11/15 12:06:31;;;;;;;24.88;15.80;;;13.60;99.90;;;;;;5025621;28;20652;-76
2022/11/15 12:09:32;;;;;;;20.23;13.48;;;13.60;99.90;;;;;;5024214;28;20220;-75
2022/11/15 12:12:36;;;;;;;21.37;13.57;;;13.50;99.90;;;;;;5025855;28;20216;-78
2022/11/15 12:15:12;;;;;;;18.98;13.75;;;13.60;99.90;;;;;;4938604;29;20354;-78
2022/11/15 12:17:41;;;;;;;18.80;13.77;;;13.40;99.90;;;;;;5012715;28;20224;-77
2022/11/15 12:20:26;;;;;;;22.47;13.73;;;13.50;99.90;;;;;;5027089;28;20220;-79
2022/11/15 12:23:06;;;;;;;17.20;13.02;;;13.60;99.90;;;;;;5029714;28;20220;-78
2022/11/15 12:25:56;;;;;;;16.35;11.82;;;13.50;99.90;;;;;;5026910;28;20228;-78
2022/11/15 12:28:28;;;;;;;18.73;11.70;;;13.50;99.90;;;;;;5029325;28;20212;-77
2022/11/15 12:31:05;;;;;;;20.30;12.55;;;13.70;99.90;;;;;;5024170;28;20212;-77
2022/11/15 12:33:39;;;;;;;16.90;11.77;;;13.60;99.90;;;;;;5030769;28;20216;-78
2022/11/15 12:36:32;;;;;;;16.80;12.20;;;13.60;99.90;;;;;;5027857;28;20195;-78
2022/11/15 12:38:58;;;;;;;18.17;12.02;;;13.70;99.90;;;;;;5027607;28;20295;-77
2022/11/15 12:41:32;;;;;;;17.83;11.97;;;13.70;99.90;;;;;;5031795;28;20315;-77
2022/11/15 12:44:01;;;;;;;15.00;11.85;;;13.70;99.90;;;;;;5026932;28;20667;-77
2022/11/15 12:46:30;;;;;;;20.20;12.55;;;13.70;99.90;;;;;;5029397;28;20295;-78
2022/11/15 12:49:27;;;;;;;23.05;13.85;;;13.70;99.90;;;;;;5026558;28;20215;-77
2022/11/15 12:51:59;;;;;;;18.45;13.77;;;13.80;99.90;;;;;;5001419;28;20208;-77
2022/11/15 12:54:26;;;;;;;20.42;14.80;;;13.80;99.90;;;;;;5031622;28;20184;-79
2022/11/15 12:57:04;;;;;;;19.92;14.90;;;13.80;99.90;;;;;;5030327;28;20307;-76
2022/11/15 12:59:55;;;;;;;23.15;14.38;;;13.80;99.90;;;;;;5024444;28;20238;-76
2022/11/15 13:02:26;;;;;;;22.67;14.60;;;13.70;99.90;;;;;;5028999;28;20603;-78
2022/11/15 13:04:54;;;;;;;20.17;14.43;;;13.60;99.90;;;;;;5023501;28;20224;-78
2022/11/15 13:07:35;;;;;;;20.63;13.95;;;13.60;99.90;;;;;;5028707;28;20239;-78
2022/11/15 13:10:22;;;;;;;23.65;15.43;;;13.60;99.90;;;;;;5030775;28;20208;-78